createdAt,value
2019-02-28T00:01:32.358Z,14.47
2019-02-28T00:04:00.078Z,15.60
2019-02-28T00:06:28.285Z,8.43
2019-02-28T00:08:55.948Z,12.73
2019-02-28T00:11:24.218Z,11.27
2019-02-28T00:13:55.555Z,13.33
2019-02-28T00:16:21.932Z,8.70
2019-02-28T00:18:50.557Z,8.30
2019-02-28T00:21:18.733Z,10.27
2019-02-28T00:23:46.389Z,8.03
2019-02-28T00:26:14.052Z,8.30
2019-02-28T00:28:42.325Z,13.00
2019-02-28T00:31:14.202Z,8.87
2019-02-28T00:33:40.146Z,17.13
2019-02-28T00:36:08.122Z,8.63
2019-02-28T00:38:36.143Z,8.53
2019-02-28T00:41:04.593Z,7.50
2019-02-28T00:43:32.559Z,9.43
2019-02-28T00:46:01.009Z,6.97
2019-02-28T00:48:28.942Z,8.30
2019-02-28T00:50:58.548Z,7.70
2019-02-28T00:53:26.925Z,7.70
2019-02-28T00:55:54.942Z,7.60
2019-02-28T00:58:23.009Z,8.30
2019-02-28T01:00:51.494Z,10.10
2019-02-28T01:03:19.882Z,6.83
2019-02-28T01:05:47.911Z,9.40
2019-02-28T01:08:15.926Z,6.50
2019-02-28T01:10:44.489Z,7.87
2019-02-28T01:13:12.878Z,6.43
2019-02-28T01:15:44.604Z,7.00
2019-02-28T01:18:10.861Z,7.90
2019-02-28T01:20:38.897Z,9.50
2019-02-28T01:23:06.792Z,9.17
2019-02-28T01:25:37.220Z,7.47
2019-02-28T01:28:04.749Z,6.60
2019-02-28T01:30:32.665Z,8.77
2019-02-28T01:33:01.338Z,9.07
2019-02-28T01:35:29.288Z,10.17
2019-02-28T01:37:56.954Z,11.00
2019-02-28T01:40:24.625Z,9.63
2019-02-28T01:42:54.845Z,8.60
2019-02-28T01:45:23.081Z,9.13
2019-02-28T01:47:51.793Z,10.40
2019-02-28T01:50:20.371Z,9.07
2019-02-28T01:52:48.044Z,7.97
2019-02-28T01:55:15.705Z,7.97
2019-02-28T01:57:44.447Z,8.50
2019-02-28T02:00:13.196Z,7.83
2019-02-28T02:02:41.132Z,9.87
2019-02-28T02:05:09.408Z,11.07
2019-02-28T02:07:37.414Z,8.80
2019-02-28T02:10:08.658Z,8.63
2019-02-28T02:12:36.312Z,7.93
2019-02-28T02:15:06.373Z,8.93
2019-02-28T02:17:35.435Z,8.33
2019-02-28T02:20:05.143Z,14.03
2019-02-28T02:22:32.793Z,9.00
2019-02-28T02:25:02.858Z,10.87
2019-02-28T02:27:30.541Z,12.67
2019-02-28T02:29:58.593Z,9.37
2019-02-28T02:32:26.486Z,10.70
2019-02-28T02:34:54.428Z,9.33
2019-02-28T02:37:26.309Z,9.63
2019-02-28T02:39:52.483Z,9.30
2019-02-28T02:42:20.450Z,11.33
2019-02-28T02:44:48.432Z,10.37
2019-02-28T02:47:16.361Z,10.80
2019-02-28T02:49:44.318Z,16.13
2019-02-28T02:52:11.973Z,8.97
2019-02-28T02:54:40.205Z,10.80
2019-02-28T02:57:08.169Z,17.90
2019-02-28T02:59:39.094Z,24.13
2019-02-28T03:02:06.143Z,11.40
2019-02-28T03:04:34.129Z,9.70
2019-02-28T03:07:01.813Z,13.63
2019-02-28T03:09:29.467Z,9.53
2019-02-28T03:11:58.724Z,11.10
2019-02-28T03:14:27.246Z,18.23
2019-02-28T03:16:55.165Z,10.60
2019-02-28T03:19:23.172Z,14.83
2019-02-28T03:21:52.579Z,9.77
2019-02-28T03:24:20.952Z,9.17
2019-02-28T03:26:48.614Z,10.60
2019-02-28T03:29:16.522Z,11.03
2019-02-28T03:31:55.245Z,12.40
2019-02-28T03:34:14.495Z,11.30
2019-02-28T03:36:42.766Z,11.60
2019-02-28T03:39:10.723Z,11.27
2019-02-28T03:41:38.793Z,10.50
2019-02-28T03:44:07.128Z,13.87
2019-02-28T03:46:35.200Z,9.90
2019-02-28T03:49:07.107Z,12.53
2019-02-28T03:51:32.894Z,15.27
2019-02-28T03:54:01.198Z,12.03
2019-02-28T03:56:29.203Z,11.33
2019-02-28T03:58:57.451Z,10.47
2019-02-28T04:01:25.772Z,13.90
2019-02-28T04:03:54.053Z,13.93
2019-02-28T04:06:22.055Z,14.20
2019-02-28T04:08:49.729Z,11.20
2019-02-28T04:11:17.681Z,11.23
2019-02-28T04:13:45.350Z,11.40
2019-02-28T04:16:13.626Z,17.63
2019-02-28T04:18:46.142Z,17.97
2019-02-28T04:21:12.182Z,11.30
2019-02-28T04:23:40.915Z,14.80
2019-02-28T04:26:09.193Z,13.53
2019-02-28T04:28:37.483Z,13.00
2019-02-28T04:31:05.768Z,13.80
2019-02-28T04:33:37.530Z,11.27
2019-02-28T04:36:03.173Z,13.37
2019-02-28T04:38:31.590Z,14.03
2019-02-28T04:41:00.030Z,15.23
2019-02-28T04:43:27.769Z,12.77
2019-02-28T04:45:57.614Z,15.30
2019-02-28T04:48:25.049Z,14.93
2019-02-28T04:50:53.059Z,12.00
2019-02-28T04:53:21.001Z,12.43
2019-02-28T04:55:48.971Z,13.73
2019-02-28T04:58:16.937Z,12.50
2019-02-28T05:00:44.930Z,12.43
2019-02-28T05:03:12.920Z,13.43
2019-02-28T05:05:40.593Z,13.10
2019-02-28T05:08:08.253Z,13.90
2019-02-28T05:10:35.916Z,13.33
2019-02-28T05:13:03.674Z,11.47
2019-02-28T05:15:37.398Z,13.23
2019-02-28T05:18:01.799Z,13.83
2019-02-28T05:20:29.721Z,12.50
2019-02-28T05:22:59.284Z,10.90
2019-02-28T05:25:28.439Z,24.03
2019-02-28T05:27:56.753Z,16.37
2019-02-28T05:30:24.413Z,12.80
2019-02-28T05:32:52.397Z,14.27
2019-02-28T05:35:25.475Z,13.80
2019-02-28T05:37:51.536Z,12.50
2019-02-28T05:40:19.465Z,12.50
2019-02-28T05:42:47.389Z,17.60
2019-02-28T05:45:15.798Z,15.60
2019-02-28T05:47:46.705Z,14.40
2019-02-28T05:50:16.827Z,13.70
2019-02-28T05:52:43.873Z,14.93
2019-02-28T05:55:11.540Z,15.50
2019-02-28T05:57:43.544Z,17.80
2019-02-28T06:00:10.082Z,17.73
2019-02-28T06:02:38.134Z,13.90
2019-02-28T06:05:08.413Z,15.00
2019-02-28T06:07:36.298Z,14.97
2019-02-28T06:10:04.700Z,14.90
2019-02-28T06:12:32.344Z,14.83
2019-02-28T06:15:03.260Z,17.00
2019-02-28T06:17:30.573Z,16.17
2019-02-28T06:19:58.226Z,14.20
2019-02-28T06:22:26.213Z,13.97
2019-02-28T06:24:54.774Z,18.47
2019-02-28T06:27:24.286Z,15.80
2019-02-28T06:29:52.674Z,17.80
2019-02-28T06:32:23.612Z,14.20
2019-02-28T06:34:50.329Z,18.33
2019-02-28T06:37:18.355Z,17.73
2019-02-28T06:39:46.326Z,17.20
2019-02-28T06:42:14.365Z,16.93
2019-02-28T06:44:42.376Z,17.40
2019-02-28T06:47:11.288Z,21.30
2019-02-28T06:49:41.837Z,18.20
2019-02-28T06:52:10.271Z,18.80
2019-02-28T06:54:39.922Z,20.10
2019-02-28T06:57:08.069Z,20.63
2019-02-28T06:59:39.128Z,18.00
2019-02-28T07:02:08.778Z,19.90
2019-02-28T07:04:36.502Z,20.40
2019-02-28T07:07:07.428Z,18.27
2019-02-28T07:09:36.438Z,16.60
2019-02-28T07:12:04.494Z,24.13
2019-02-28T07:14:32.465Z,18.97
2019-02-28T07:17:00.841Z,19.47
2019-02-28T07:19:28.602Z,18.33
2019-02-28T07:21:56.537Z,20.30
2019-02-28T07:24:24.234Z,21.17
2019-02-28T07:26:53.029Z,20.63
2019-02-28T07:29:21.379Z,21.57
2019-02-28T07:31:49.287Z,22.10
2019-02-28T07:34:21.993Z,20.67
2019-02-28T07:36:47.252Z,21.97
2019-02-28T07:39:15.538Z,23.33
2019-02-28T07:41:43.885Z,28.50
2019-02-28T07:44:11.914Z,29.00
2019-02-28T07:46:42.312Z,25.07
2019-02-28T07:49:09.325Z,25.70
2019-02-28T07:51:37.054Z,27.47
2019-02-28T07:54:05.404Z,26.17
2019-02-28T07:56:33.450Z,25.90
2019-02-28T07:59:05.292Z,26.53
2019-02-28T08:01:31.421Z,31.50
2019-02-28T08:03:59.086Z,27.00
2019-02-28T08:06:26.770Z,26.83
2019-02-28T08:08:55.357Z,26.90
2019-02-28T08:11:23.293Z,27.70
2019-02-28T08:13:51.324Z,25.10
2019-02-28T08:16:19.326Z,24.60
2019-02-28T08:18:47.006Z,24.70
2019-02-28T08:21:14.733Z,26.87
2019-02-28T08:23:43.056Z,25.57
2019-02-28T08:26:10.753Z,25.57
2019-02-28T08:28:39.001Z,29.80
2019-02-28T08:31:07.413Z,37.40
2019-02-28T08:33:35.844Z,36.37
2019-02-28T08:36:05.307Z,38.87
2019-02-28T08:38:34.373Z,33.97
2019-02-28T08:41:02.198Z,36.80
2019-02-28T08:43:30.493Z,40.67
2019-02-28T08:45:58.795Z,37.27
2019-02-28T08:48:31.592Z,39.53
2019-02-28T08:50:56.790Z,35.93
2019-02-28T08:53:24.543Z,34.93
2019-02-28T08:55:53.120Z,37.00
2019-02-28T08:58:20.793Z,40.23
2019-02-28T09:00:48.549Z,38.03
2019-02-28T09:03:16.478Z,34.30
2019-02-28T09:05:44.470Z,34.73
2019-02-28T09:08:12.730Z,35.27
2019-02-28T09:10:43.581Z,37.27
2019-02-28T09:13:10.409Z,33.83
2019-02-28T09:15:38.325Z,34.10
2019-02-28T09:18:07.335Z,35.97
2019-02-28T09:20:35.173Z,35.07
2019-02-28T09:23:03.252Z,35.13
2019-02-28T09:25:31.422Z,38.70
2019-02-28T09:27:59.106Z,33.50
2019-02-28T09:30:29.631Z,34.80
2019-02-28T09:32:58.172Z,34.70
2019-02-28T09:35:26.382Z,33.97
2019-02-28T09:37:54.448Z,35.63
2019-02-28T09:40:25.819Z,35.57
2019-02-28T09:42:52.729Z,34.13
2019-02-28T09:45:20.795Z,39.87
2019-02-28T09:47:48.797Z,33.83
2019-02-28T09:50:19.489Z,35.20
2019-02-28T09:52:47.415Z,34.40
2019-02-28T09:55:15.569Z,33.40
2019-02-28T09:57:43.237Z,33.60
2019-02-28T10:00:12.752Z,34.67
2019-02-28T10:02:43.979Z,37.50
2019-02-28T10:05:11.760Z,39.77
2019-02-28T10:07:40.114Z,43.17
2019-02-28T10:10:09.321Z,39.47
2019-02-28T10:12:39.476Z,40.03
2019-02-28T10:15:08.189Z,43.73
2019-02-28T10:17:36.236Z,42.60
2019-02-28T10:20:03.997Z,45.00
2019-02-28T10:22:32.007Z,43.73
2019-02-28T10:24:59.950Z,48.87
2019-02-28T10:27:27.712Z,43.90
2019-02-28T10:29:55.354Z,53.37
2019-02-28T10:32:23.033Z,51.87
2019-02-28T10:34:51.260Z,49.87
2019-02-28T10:37:19.296Z,52.13
2019-02-28T10:39:48.570Z,47.33
2019-02-28T10:42:16.880Z,49.67
2019-02-28T10:44:44.929Z,60.50
2019-02-28T10:47:13.211Z,51.77
2019-02-28T10:49:41.238Z,59.77
2019-02-28T10:52:09.319Z,54.17
2019-02-28T10:54:37.281Z,53.83
2019-02-28T10:57:06.056Z,47.27
2019-02-28T10:59:34.434Z,49.73
2019-02-28T11:02:02.365Z,52.27
2019-02-28T11:04:30.578Z,48.80
2019-02-28T11:06:59.347Z,46.03
2019-02-28T11:09:28.733Z,48.87
2019-02-28T11:11:57.241Z,51.40
2019-02-28T11:14:25.008Z,49.07
2019-02-28T11:16:58.938Z,57.80
2019-02-28T11:19:23.473Z,50.17
2019-02-28T11:21:51.736Z,50.30
2019-02-28T11:24:20.636Z,47.77
2019-02-28T11:26:49.132Z,43.90
2019-02-28T11:29:17.736Z,44.07
2019-02-28T11:31:46.036Z,45.23
2019-02-28T11:34:15.014Z,45.70
2019-02-28T11:36:44.820Z,46.40
2019-02-28T11:39:15.952Z,44.40
2019-02-28T11:41:43.890Z,39.63
2019-02-28T11:44:12.013Z,48.40
2019-02-28T11:46:40.703Z,43.30
2019-02-28T11:49:08.385Z,41.97
2019-02-28T11:51:36.321Z,46.10
2019-02-28T11:54:04.599Z,38.53
2019-02-28T11:56:32.298Z,36.57
2019-02-28T11:59:00.230Z,40.23
2019-02-28T12:01:28.669Z,38.87
2019-02-28T12:03:56.633Z,34.63
2019-02-28T12:06:25.756Z,38.87
2019-02-28T12:08:54.349Z,33.83
2019-02-28T12:11:22.302Z,39.13
2019-02-28T12:13:51.738Z,38.00
2019-02-28T12:16:20.658Z,36.60
2019-02-28T12:18:48.927Z,39.43
2019-02-28T12:21:17.278Z,31.50
2019-02-28T12:23:45.613Z,34.50
2019-02-28T12:26:14.389Z,36.20
2019-02-28T12:28:43.295Z,42.23
2019-02-28T12:31:11.357Z,37.77
2019-02-28T12:33:39.692Z,46.47
2019-02-28T12:36:08.054Z,36.90
2019-02-28T12:38:35.997Z,43.73
2019-02-28T12:41:03.946Z,41.67
2019-02-28T12:43:32.189Z,41.97
2019-02-28T12:46:00.830Z,44.30
2019-02-28T12:48:29.130Z,45.63
2019-02-28T12:50:56.793Z,44.47
2019-02-28T12:53:25.498Z,46.30
2019-02-28T12:55:53.548Z,42.57
2019-02-28T12:58:21.592Z,46.87
2019-02-28T13:00:49.814Z,50.40
2019-02-28T13:03:20.303Z,43.60
2019-02-28T13:05:49.337Z,47.53
2019-02-28T13:08:17.145Z,50.30
2019-02-28T13:10:45.362Z,66.40
2019-02-28T13:13:13.643Z,76.87
2019-02-28T13:15:45.430Z,67.40
2019-02-28T13:18:11.636Z,69.70
2019-02-28T13:20:39.998Z,68.93
2019-02-28T13:23:07.764Z,74.10
2019-02-28T13:25:36.149Z,74.30
2019-02-28T13:28:03.821Z,97.07
2019-02-28T13:30:31.786Z,74.27
2019-02-28T13:32:59.616Z,75.00
2019-02-28T13:35:28.778Z,75.57
2019-02-28T13:37:56.849Z,61.90
2019-02-28T13:40:25.289Z,60.37
2019-02-28T13:42:52.981Z,65.67
2019-02-28T13:45:23.237Z,56.70
2019-02-28T13:47:50.597Z,65.63
2019-02-28T13:50:22.117Z,54.77
2019-02-28T13:52:52.205Z,56.17
2019-02-28T13:55:19.964Z,66.53
2019-02-28T13:57:48.137Z,70.53
2019-02-28T14:00:18.054Z,67.73
2019-02-28T14:02:46.398Z,63.17
2019-02-28T14:05:14.304Z,50.90
2019-02-28T14:07:42.322Z,47.67
2019-02-28T14:10:11.550Z,45.53
2019-02-28T14:12:39.634Z,42.00
2019-02-28T14:15:08.421Z,50.97
2019-02-28T14:17:36.710Z,46.70
2019-02-28T14:20:05.410Z,46.40
2019-02-28T14:22:33.338Z,41.53
2019-02-28T14:25:05.113Z,43.80
2019-02-28T14:27:31.194Z,43.63
2019-02-28T14:29:59.492Z,42.33
2019-02-28T14:32:27.413Z,38.43
2019-02-28T14:34:57.262Z,40.23
2019-02-28T14:37:24.741Z,49.00
2019-02-28T14:39:53.045Z,42.93
2019-02-28T14:42:21.014Z,43.13
2019-02-28T14:44:48.661Z,44.10
2019-02-28T14:47:16.882Z,43.53
2019-02-28T14:49:44.870Z,46.60
2019-02-28T14:52:14.288Z,46.93
2019-02-28T14:54:42.806Z,41.73
2019-02-28T14:57:13.392Z,35.97
2019-02-28T14:59:41.560Z,45.93
2019-02-28T15:02:10.095Z,40.33
2019-02-28T15:04:39.745Z,44.63
2019-02-28T15:07:08.377Z,38.00
2019-02-28T15:09:36.040Z,40.20
2019-02-28T15:12:04.230Z,32.33
2019-02-28T15:14:32.610Z,37.80
2019-02-28T15:17:01.945Z,35.90
2019-02-28T15:19:30.506Z,33.13
2019-02-28T15:21:58.281Z,33.40
2019-02-28T15:24:26.749Z,32.00
2019-02-28T15:26:54.760Z,24.03
2019-02-28T15:29:23.395Z,26.03
2019-02-28T15:31:52.786Z,23.77
2019-02-28T15:34:22.384Z,26.97
2019-02-28T15:36:50.261Z,24.83
2019-02-28T15:39:18.452Z,23.63
2019-02-28T15:41:46.597Z,23.40
2019-02-28T15:44:14.638Z,25.53
2019-02-28T15:46:43.865Z,24.57
2019-02-28T15:49:12.463Z,24.37
2019-02-28T15:51:40.732Z,21.50
2019-02-28T15:54:09.062Z,26.70
2019-02-28T15:56:36.990Z,23.73
2019-02-28T15:59:05.359Z,24.87
2019-02-28T16:01:33.550Z,21.23
2019-02-28T16:04:01.593Z,22.70
2019-02-28T16:06:30.022Z,22.60
2019-02-28T16:08:58.401Z,23.77
2019-02-28T16:11:26.061Z,22.57
2019-02-28T16:13:53.735Z,23.83
2019-02-28T16:16:24.755Z,27.30
2019-02-28T16:18:51.463Z,34.77
2019-02-28T16:21:19.392Z,22.63
2019-02-28T16:23:47.421Z,17.20
2019-02-28T16:26:18.298Z,23.93
2019-02-28T16:28:45.597Z,21.17
2019-02-28T16:31:13.814Z,27.43
2019-02-28T16:33:41.795Z,22.13
2019-02-28T16:36:10.224Z,24.43
2019-02-28T16:38:38.261Z,23.10
2019-02-28T16:41:06.884Z,16.30
2019-02-28T16:43:34.616Z,13.80
2019-02-28T16:46:02.640Z,12.70
2019-02-28T16:48:33.489Z,13.77
2019-02-28T16:51:00.858Z,9.93
2019-02-28T16:53:28.833Z,17.30
2019-02-28T16:55:56.832Z,16.50
2019-02-28T16:58:24.769Z,11.83
2019-02-28T17:00:53.406Z,10.83
2019-02-28T17:03:21.070Z,11.50
2019-02-28T17:05:49.128Z,9.17
2019-02-28T17:08:18.638Z,9.90
2019-02-28T17:10:47.705Z,12.13
2019-02-28T17:13:35.602Z,10.60
2019-02-28T17:16:07.518Z,13.53
2019-02-28T17:18:35.804Z,11.27
2019-02-28T17:21:04.149Z,11.90
2019-02-28T17:23:33.600Z,15.83
2019-02-28T17:26:01.995Z,17.40
2019-02-28T17:29:00.710Z,9.57
2019-02-28T17:31:44.444Z,11.43
2019-02-28T17:34:15.269Z,12.07
2019-02-28T17:36:44.110Z,10.67
2019-02-28T17:39:14.935Z,7.67
2019-02-28T17:41:43.090Z,11.20
2019-02-28T17:44:21.807Z,15.57
2019-02-28T17:46:50.634Z,13.33
2019-02-28T17:49:47.082Z,12.57
2019-02-28T17:52:17.775Z,10.57
2019-02-28T17:55:20.702Z,9.80
2019-02-28T17:58:09.126Z,11.93
2019-02-28T18:00:41.958Z,9.67
2019-02-28T18:03:27.690Z,8.50
2019-02-28T18:06:13.514Z,13.43
2019-02-28T18:09:01.142Z,9.53
2019-02-28T18:11:35.974Z,11.60
2019-02-28T18:14:08.568Z,17.77
2019-02-28T18:16:58.619Z,13.20
2019-02-28T18:19:51.145Z,7.63
2019-02-28T18:22:43.444Z,9.57
2019-02-28T18:25:29.689Z,12.87
2019-02-28T18:28:35.033Z,12.80
2019-02-28T18:31:09.896Z,20.43
2019-02-28T18:33:41.808Z,12.43
2019-02-28T18:36:09.847Z,15.47
2019-02-28T18:38:37.534Z,16.33
2019-02-28T18:41:06.497Z,14.63
2019-02-28T18:43:34.514Z,11.70
2019-02-28T18:46:02.490Z,12.27
2019-02-28T18:48:30.701Z,12.37
2019-02-28T18:50:58.725Z,10.80
2019-02-28T18:53:26.664Z,9.07
2019-02-28T18:55:54.773Z,11.80
2019-02-28T18:58:22.788Z,11.60
2019-02-28T19:00:51.254Z,10.37
2019-02-28T19:03:19.537Z,11.20
2019-02-28T19:05:47.208Z,14.23
2019-02-28T19:08:14.930Z,14.20
2019-02-28T19:10:42.598Z,12.37
2019-02-28T19:13:10.597Z,12.60
2019-02-28T19:15:38.663Z,12.93
2019-02-28T19:18:09.487Z,11.87
2019-02-28T19:20:37.132Z,11.67
2019-02-28T19:23:04.792Z,9.07
2019-02-28T19:25:33.097Z,11.97
2019-02-28T19:28:02.146Z,10.83
2019-02-28T19:30:30.170Z,12.17
2019-02-28T19:32:58.105Z,10.13
2019-02-28T19:35:26.042Z,13.80
2019-02-28T19:37:53.754Z,12.03
2019-02-28T19:40:21.419Z,16.80
2019-02-28T19:42:49.084Z,15.30
2019-02-28T19:45:17.126Z,11.97
2019-02-28T19:47:45.175Z,22.97
2019-02-28T19:50:13.161Z,12.97
2019-02-28T19:52:41.380Z,15.40
2019-02-28T19:55:10.177Z,15.77
2019-02-28T19:57:37.836Z,13.50
2019-02-28T20:00:05.813Z,17.00
2019-02-28T20:02:34.066Z,15.07
2019-02-28T20:05:02.242Z,21.93
2019-02-28T20:07:30.318Z,14.40
2019-02-28T20:09:58.005Z,10.73
2019-02-28T20:12:25.985Z,12.80
2019-02-28T20:14:53.982Z,12.40
2019-02-28T20:17:22.192Z,12.10
2019-02-28T20:19:50.475Z,20.67
2019-02-28T20:22:18.439Z,15.30
2019-02-28T20:24:46.356Z,18.43
2019-02-28T20:27:14.031Z,17.00
2019-02-28T20:29:41.985Z,12.77
2019-02-28T20:32:10.071Z,17.73
2019-02-28T20:34:37.746Z,18.70
2019-02-28T20:37:05.686Z,14.47
2019-02-28T20:39:33.710Z,13.73
2019-02-28T20:42:01.733Z,11.20
2019-02-28T20:44:30.042Z,13.93
2019-02-28T20:46:58.471Z,15.27
2019-02-28T20:49:26.481Z,15.53
2019-02-28T20:51:55.310Z,11.23
2019-02-28T20:54:23.717Z,13.07
2019-02-28T20:56:51.375Z,13.10
2019-02-28T20:59:19.825Z,11.23
2019-02-28T21:01:47.478Z,17.90
2019-02-28T21:04:15.418Z,13.90
2019-02-28T21:06:43.597Z,13.60
2019-02-28T21:09:12.223Z,15.30
2019-02-28T21:11:40.286Z,13.70
2019-02-28T21:14:08.251Z,11.77
2019-02-28T21:16:36.285Z,13.00
2019-02-28T21:19:04.245Z,9.20
2019-02-28T21:21:32.430Z,12.13
2019-02-28T21:24:00.636Z,11.80
2019-02-28T21:26:28.918Z,18.53
2019-02-28T21:28:57.297Z,17.53
2019-02-28T21:31:25.707Z,13.67
2019-02-28T21:33:53.657Z,14.50
2019-02-28T21:36:21.701Z,15.50
2019-02-28T21:38:49.366Z,14.30
2019-02-28T21:41:17.327Z,13.13
2019-02-28T21:43:44.986Z,11.53
2019-02-28T21:46:12.769Z,16.63
2019-02-28T21:48:41.105Z,18.90
2019-02-28T21:51:08.774Z,17.13
2019-02-28T21:53:36.477Z,17.60
2019-02-28T21:56:04.754Z,15.37
2019-02-28T21:58:32.772Z,18.20
2019-02-28T22:01:00.745Z,15.50
2019-02-28T22:03:29.025Z,22.30
2019-02-28T22:05:56.997Z,21.23
2019-02-28T22:08:25.228Z,23.97
2019-02-28T22:10:53.163Z,23.97
2019-02-28T22:13:20.854Z,21.30
2019-02-28T22:15:48.526Z,20.70
2019-02-28T22:18:16.890Z,19.27
2019-02-28T22:20:44.566Z,19.57
2019-02-28T22:23:12.888Z,21.30
2019-02-28T22:25:40.565Z,20.37
2019-02-28T22:28:09.206Z,18.57
2019-02-28T22:31:02.431Z,17.83
2019-02-28T22:33:41.661Z,18.37
2019-02-28T22:36:12.294Z,16.80
2019-02-28T22:38:40.377Z,23.07
2019-02-28T22:41:08.341Z,21.57
2019-02-28T22:43:36.308Z,21.47
2019-02-28T22:46:04.441Z,23.60
2019-02-28T22:48:32.437Z,26.37
2019-02-28T22:51:01.042Z,22.30
2019-02-28T22:53:29.326Z,22.10
2019-02-28T22:55:57.348Z,28.07
2019-02-28T22:58:25.288Z,28.50
2019-02-28T23:01:09.309Z,22.60
2019-02-28T23:03:37.568Z,18.00
2019-02-28T23:06:05.781Z,19.03
2019-02-28T23:08:33.701Z,25.33
2019-02-28T23:11:01.382Z,26.87
2019-02-28T23:13:29.314Z,21.90
2019-02-28T23:15:57.793Z,23.20
2019-02-28T23:18:25.953Z,20.67
2019-02-28T23:20:53.941Z,18.67
2019-02-28T23:23:22.145Z,21.97
2019-02-28T23:25:50.253Z,19.03
2019-02-28T23:28:28.892Z,18.50
2019-02-28T23:31:19.004Z,22.20
2019-02-28T23:33:46.713Z,21.07
2019-02-28T23:36:14.729Z,21.23
2019-02-28T23:38:43.202Z,16.30
2019-02-28T23:41:10.941Z,17.40
2019-02-28T23:43:38.601Z,11.50
2019-02-28T23:46:06.774Z,11.93
2019-02-28T23:48:34.702Z,10.37
2019-02-28T23:51:02.683Z,10.30
2019-02-28T23:53:30.925Z,9.87
2019-02-28T23:55:59.027Z,11.90
2019-02-28T23:58:27.056Z,9.07
